createdAt,value
2018-12-17T00:01:17.419Z,28.17
2018-12-17T00:03:47.050Z,29.17
2018-12-17T00:06:16.577Z,29.87
2018-12-17T00:08:44.413Z,30.30
2018-12-17T00:11:12.078Z,30.77
2018-12-17T00:13:39.597Z,30.40
2018-12-17T00:16:07.468Z,29.97
2018-12-17T00:18:35.298Z,31.23
2018-12-17T00:21:02.798Z,29.40
2018-12-17T00:23:30.241Z,27.93
2018-12-17T00:25:57.788Z,31.50
2018-12-17T00:28:25.638Z,33.27
2018-12-17T00:30:53.175Z,33.27
2018-12-17T00:33:20.919Z,33.37
2018-12-17T00:35:48.389Z,31.13
2018-12-17T00:38:16.350Z,32.10
2018-12-17T00:40:43.897Z,32.53
2018-12-17T00:43:11.402Z,34.37
2018-12-17T00:45:38.964Z,31.80
2018-12-17T00:48:06.483Z,30.67
2018-12-17T00:50:34.238Z,31.63
2018-12-17T00:53:01.814Z,30.37
2018-12-17T00:55:29.335Z,32.80
2018-12-17T00:57:56.847Z,32.30
2018-12-17T01:00:24.339Z,34.00
2018-12-17T01:02:51.956Z,30.80
2018-12-17T01:05:20.864Z,31.73
2018-12-17T01:07:48.605Z,31.73
2018-12-17T01:10:16.353Z,33.33
2018-12-17T01:12:44.213Z,32.60
2018-12-17T01:15:11.775Z,30.93
2018-12-17T01:17:39.528Z,31.67
2018-12-17T01:20:07.279Z,34.23
2018-12-17T01:22:35.914Z,30.27
2018-12-17T01:25:03.542Z,31.53
2018-12-17T01:27:31.019Z,31.00
2018-12-17T01:29:58.522Z,34.23
2018-12-17T01:32:26.012Z,33.20
2018-12-17T01:34:53.745Z,30.90
2018-12-17T01:37:21.209Z,29.33
2018-12-17T01:39:48.729Z,33.20
2018-12-17T01:42:16.434Z,31.37
2018-12-17T01:44:43.993Z,31.37
2018-12-17T01:47:11.533Z,29.73
2018-12-17T01:49:39.056Z,29.67
2018-12-17T01:52:06.837Z,30.80
2018-12-17T01:54:34.377Z,29.60
2018-12-17T01:57:02.046Z,31.60
2018-12-17T01:59:29.652Z,27.63
2018-12-17T02:02:04.137Z,29.90
2018-12-17T02:04:31.647Z,28.27
2018-12-17T02:06:59.122Z,29.50
2018-12-17T02:09:26.614Z,30.10
2018-12-17T02:11:54.096Z,29.80
2018-12-17T02:14:21.641Z,26.37
2018-12-17T02:16:49.711Z,27.90
2018-12-17T02:19:17.197Z,29.60
2018-12-17T02:21:44.705Z,26.57
2018-12-17T02:24:12.281Z,28.87
2018-12-17T02:26:39.779Z,27.00
2018-12-17T02:29:07.654Z,30.27
2018-12-17T02:31:35.137Z,27.13
2018-12-17T02:34:02.830Z,28.80
2018-12-17T02:36:30.634Z,26.87
2018-12-17T02:38:58.180Z,27.23
2018-12-17T02:41:25.872Z,27.70
2018-12-17T02:43:53.607Z,26.77
2018-12-17T02:46:21.253Z,26.43
2018-12-17T02:48:48.786Z,26.70
2018-12-17T02:51:16.292Z,25.57
2018-12-17T02:53:44.432Z,26.80
2018-12-17T02:56:12.098Z,24.13
2018-12-17T02:58:43.950Z,27.80
2018-12-17T03:04:38.050Z,25.13
2018-12-17T03:07:05.557Z,24.50
2018-12-17T03:09:33.089Z,26.97
2018-12-17T03:12:00.591Z,24.80
2018-12-17T03:14:28.436Z,26.70
2018-12-17T03:16:55.909Z,25.33
2018-12-17T03:19:23.380Z,24.37
2018-12-17T03:21:51.085Z,23.20
2018-12-17T03:24:21.561Z,23.97
2018-12-17T03:26:49.093Z,23.97
2018-12-17T03:29:16.576Z,23.57
2018-12-17T03:31:44.381Z,22.80
2018-12-17T03:34:11.871Z,23.77
2018-12-17T03:36:39.434Z,22.40
2018-12-17T03:39:07.222Z,21.93
2018-12-17T03:41:36.893Z,23.47
2018-12-17T03:44:07.380Z,23.57
2018-12-17T03:46:34.866Z,23.80
2018-12-17T03:49:02.827Z,24.47
2018-12-17T03:51:30.461Z,21.87
2018-12-17T03:53:57.917Z,24.60
2018-12-17T03:56:27.302Z,20.50
2018-12-17T03:58:59.275Z,22.40
2018-12-17T04:01:24.430Z,19.57
2018-12-17T04:03:51.969Z,23.17
2018-12-17T04:06:19.432Z,21.53
2018-12-17T04:08:47.158Z,20.30
2018-12-17T04:11:14.732Z,24.70
2018-12-17T04:13:42.370Z,21.43
2018-12-17T04:16:09.856Z,21.13
2018-12-17T04:18:37.421Z,20.47
2018-12-17T04:21:05.044Z,23.90
2018-12-17T04:23:32.556Z,23.90
2018-12-17T04:26:09.157Z,22.90
2018-12-17T04:28:36.645Z,20.90
2018-12-17T04:31:04.210Z,22.37
2018-12-17T04:33:31.788Z,22.30
2018-12-17T04:35:59.333Z,25.77
2018-12-17T04:38:26.857Z,26.53
2018-12-17T04:40:54.350Z,23.97
2018-12-17T04:43:21.901Z,24.30
2018-12-17T04:45:49.561Z,25.63
2018-12-17T04:48:17.088Z,23.90
2018-12-17T04:50:44.592Z,23.30
2018-12-17T04:53:12.315Z,21.93
2018-12-17T04:55:40.010Z,25.53
2018-12-17T04:58:07.646Z,25.60
2018-12-17T05:00:35.169Z,26.40
2018-12-17T05:03:03.026Z,20.20
2018-12-17T05:05:30.535Z,24.90
2018-12-17T05:07:58.204Z,25.20
2018-12-17T05:10:25.742Z,26.20
2018-12-17T05:12:53.220Z,25.43
2018-12-17T05:15:20.830Z,24.53
2018-12-17T05:17:57.207Z,24.83
2018-12-17T05:20:25.477Z,26.30
2018-12-17T05:22:53.015Z,26.50
2018-12-17T05:25:20.781Z,23.80
2018-12-17T05:27:48.517Z,25.50
2018-12-17T05:30:16.382Z,26.43
2018-12-17T05:32:43.999Z,25.57
2018-12-17T05:35:11.586Z,29.90
2018-12-17T05:37:41.612Z,25.60
2018-12-17T05:40:09.250Z,25.70
2018-12-17T05:42:37.088Z,24.63
2018-12-17T05:45:05.151Z,24.80
2018-12-17T05:47:32.636Z,25.90
2018-12-17T05:50:00.343Z,26.90
2018-12-17T05:52:27.910Z,25.43
2018-12-17T05:54:55.551Z,28.57
2018-12-17T05:57:23.050Z,27.10
2018-12-17T05:59:50.969Z,27.13
2018-12-17T06:02:18.434Z,26.73
2018-12-17T06:04:45.970Z,28.50
2018-12-17T06:07:13.660Z,22.87
2018-12-17T06:09:41.298Z,25.20
2018-12-17T06:12:09.810Z,26.90
2018-12-17T06:14:37.482Z,24.77
2018-12-17T06:17:04.995Z,29.10
2018-12-17T06:19:32.530Z,24.60
2018-12-17T06:22:00.167Z,25.10
2018-12-17T06:24:28.842Z,25.50
2018-12-17T06:26:56.369Z,25.53
2018-12-17T06:29:23.853Z,24.80
2018-12-17T06:31:51.327Z,25.23
2018-12-17T06:34:18.788Z,24.20
2018-12-17T06:36:46.237Z,27.47
2018-12-17T06:39:14.894Z,26.00
2018-12-17T06:41:42.573Z,25.83
2018-12-17T06:44:10.380Z,24.60
2018-12-17T06:46:37.868Z,25.10
2018-12-17T06:49:05.377Z,25.03
2018-12-17T06:51:33.522Z,25.10
2018-12-17T06:54:01.028Z,24.17
2018-12-17T06:56:28.497Z,24.60
2018-12-17T06:58:56.057Z,24.10
2018-12-17T07:01:23.665Z,27.97
2018-12-17T07:03:51.308Z,23.27
2018-12-17T07:06:18.965Z,28.47
2018-12-17T07:08:46.425Z,25.77
2018-12-17T07:11:14.412Z,25.53
2018-12-17T07:13:41.985Z,24.87
2018-12-17T07:16:09.548Z,26.07
2018-12-17T07:18:37.340Z,25.80
2018-12-17T07:21:04.865Z,25.47
2018-12-17T07:23:32.377Z,24.03
2018-12-17T07:25:59.825Z,27.80
2018-12-17T07:28:27.466Z,28.53
2018-12-17T07:30:54.982Z,27.03
2018-12-17T07:33:22.921Z,25.20
2018-12-17T07:35:50.389Z,25.33
2018-12-17T07:38:17.861Z,29.07
2018-12-17T07:40:45.313Z,28.20
2018-12-17T07:43:12.913Z,29.67
2018-12-17T07:45:40.457Z,30.00
2018-12-17T07:48:08.206Z,28.07
2018-12-17T07:50:35.728Z,28.90
2018-12-17T07:53:03.383Z,33.50
2018-12-17T07:55:30.859Z,31.30
2018-12-17T07:57:58.443Z,30.33
2018-12-17T08:00:25.986Z,29.30
2018-12-17T08:02:53.442Z,28.60
2018-12-17T08:05:20.908Z,32.23
2018-12-17T08:07:48.526Z,31.73
2018-12-17T08:10:16.055Z,29.33
2018-12-17T08:12:43.647Z,28.00
2018-12-17T08:15:43.214Z,30.17
2018-12-17T08:18:23.848Z,30.47
2018-12-17T08:23:44.024Z,30.80
2018-12-17T08:26:11.533Z,31.90
2018-12-17T08:28:39.097Z,29.33
2018-12-17T08:31:07.070Z,31.37
2018-12-17T08:33:34.593Z,32.53
2018-12-17T08:36:02.385Z,30.30
2018-12-17T08:38:29.885Z,30.47
2018-12-17T08:40:57.412Z,30.47
2018-12-17T08:43:24.883Z,29.77
2018-12-17T08:45:52.429Z,31.13
2018-12-17T08:48:19.891Z,32.43
2018-12-17T08:50:48.511Z,30.97
2018-12-17T08:53:16.135Z,33.30
2018-12-17T08:55:43.604Z,31.20
2018-12-17T08:58:11.293Z,31.10
2018-12-17T09:00:38.794Z,32.43
2018-12-17T09:03:13.510Z,31.80
2018-12-17T09:05:41.372Z,29.80
2018-12-17T09:08:08.977Z,30.37
2018-12-17T09:10:36.444Z,30.50
2018-12-17T09:13:04.293Z,31.70
2018-12-17T09:15:33.086Z,29.63
2018-12-17T09:18:00.622Z,31.00
2018-12-17T09:20:28.120Z,29.87
2018-12-17T09:22:55.697Z,30.30
2018-12-17T09:25:23.256Z,30.97
2018-12-17T09:27:50.729Z,30.10
2018-12-17T09:30:18.717Z,29.97
2018-12-17T09:32:46.359Z,30.27
2018-12-17T09:35:13.997Z,29.37
2018-12-17T09:37:41.532Z,29.47
2018-12-17T09:40:09.403Z,30.07
2018-12-17T09:42:37.006Z,28.50
2018-12-17T09:45:05.754Z,32.00
2018-12-17T09:47:33.272Z,27.90
2018-12-17T09:50:00.894Z,28.00
2018-12-17T09:52:28.545Z,31.10
2018-12-17T09:54:56.329Z,32.17
2018-12-17T09:57:23.813Z,30.53
2018-12-17T09:59:51.269Z,30.00
2018-12-17T10:02:18.868Z,30.13
2018-12-17T10:04:46.334Z,29.13
2018-12-17T10:07:14.380Z,31.80
2018-12-17T10:09:41.943Z,31.17
2018-12-17T10:12:09.506Z,29.57
2018-12-17T10:14:38.134Z,30.40
2018-12-17T10:17:05.711Z,29.80
2018-12-17T10:19:33.277Z,31.07
2018-12-17T10:22:02.145Z,29.03
2018-12-17T10:24:29.793Z,30.23
2018-12-17T10:26:57.297Z,30.63
2018-12-17T10:29:24.794Z,30.70
2018-12-17T10:31:52.296Z,29.43
2018-12-17T10:34:19.764Z,29.43
2018-12-17T10:36:47.291Z,29.80
2018-12-17T10:39:15.086Z,27.70
2018-12-17T10:41:43.847Z,27.53
2018-12-17T10:44:13.583Z,28.40
2018-12-17T10:46:41.392Z,28.43
2018-12-17T10:49:09.002Z,25.00
2018-12-17T10:51:36.605Z,25.60
2018-12-17T10:54:04.157Z,24.70
2018-12-17T10:56:31.902Z,23.77
2018-12-17T10:58:59.467Z,26.10
2018-12-17T11:01:32.728Z,24.03
2018-12-17T11:04:03.903Z,23.30
2018-12-17T11:06:31.812Z,24.63
2018-12-17T11:08:59.312Z,23.53
2018-12-17T11:11:26.789Z,23.90
2018-12-17T11:13:54.365Z,22.77
2018-12-17T11:16:21.882Z,22.90
2018-12-17T11:18:49.397Z,23.20
2018-12-17T11:21:17.005Z,23.80
2018-12-17T11:23:44.936Z,23.23
2018-12-17T11:26:12.528Z,21.80
2018-12-17T11:28:40.171Z,23.87
2018-12-17T11:31:07.709Z,22.97
2018-12-17T11:33:35.349Z,23.20
2018-12-17T11:36:02.977Z,21.60
2018-12-17T11:38:30.537Z,22.10
2018-12-17T11:40:58.153Z,21.20
2018-12-17T11:43:25.644Z,21.13
2018-12-17T11:45:53.529Z,21.90
2018-12-17T11:48:21.290Z,20.40
2018-12-17T11:50:48.875Z,22.30
2018-12-17T11:53:16.728Z,21.93
2018-12-17T11:55:44.200Z,23.80
2018-12-17T11:58:13.363Z,21.40
2018-12-17T12:00:56.106Z,23.70
2018-12-17T12:03:24.009Z,20.87
2018-12-17T12:05:51.838Z,21.33
2018-12-17T12:08:19.346Z,20.60
2018-12-17T12:10:46.949Z,21.63
2018-12-17T12:13:14.531Z,20.30
2018-12-17T12:15:42.151Z,20.60
2018-12-17T12:18:09.926Z,20.03
2018-12-17T12:20:37.517Z,20.97
2018-12-17T12:23:05.557Z,18.63
2018-12-17T12:25:33.110Z,19.93
2018-12-17T12:28:00.897Z,19.77
2018-12-17T12:30:28.381Z,17.40
2018-12-17T12:32:56.010Z,16.63
2018-12-17T12:35:24.913Z,17.57
2018-12-17T12:37:52.388Z,19.27
2018-12-17T12:40:19.945Z,21.40
2018-12-17T12:42:51.626Z,19.63
2018-12-17T12:45:17.017Z,17.00
2018-12-17T12:47:44.682Z,16.80
2018-12-17T12:50:12.897Z,17.10
2018-12-17T12:52:41.137Z,15.93
2018-12-17T12:55:08.753Z,16.70
2018-12-17T12:57:36.290Z,16.67
2018-12-17T13:00:07.025Z,16.27
2018-12-17T13:02:34.780Z,17.40
2018-12-17T13:05:02.505Z,17.33
2018-12-17T13:07:30.494Z,14.77
2018-12-17T13:09:57.972Z,16.00
2018-12-17T13:12:25.454Z,16.57
2018-12-17T13:14:52.992Z,17.00
2018-12-17T13:17:26.184Z,15.30
2018-12-17T13:19:53.881Z,15.23
2018-12-17T13:22:22.005Z,14.90
2018-12-17T13:24:49.476Z,15.40
2018-12-17T13:27:17.014Z,14.37
2018-12-17T13:29:44.530Z,15.17
2018-12-17T13:32:12.309Z,14.33
2018-12-17T13:34:40.157Z,16.10
2018-12-17T13:37:07.718Z,14.60
2018-12-17T13:39:35.218Z,16.40
2018-12-17T13:42:02.939Z,14.00
2018-12-17T13:44:30.638Z,15.73
2018-12-17T13:46:58.093Z,16.80
2018-12-17T13:49:25.618Z,16.37
2018-12-17T13:51:58.881Z,17.00
2018-12-17T13:54:26.544Z,19.73
2018-12-17T13:56:54.158Z,16.67
2018-12-17T13:59:21.856Z,16.47
2018-12-17T14:01:51.549Z,15.40
2018-12-17T14:04:18.907Z,13.90
2018-12-17T14:06:47.057Z,13.77
2018-12-17T14:09:16.110Z,14.07
2018-12-17T14:11:46.404Z,13.37
2018-12-17T14:14:14.312Z,12.07
2018-12-17T14:16:47.470Z,14.17
2018-12-17T14:19:21.865Z,13.00
2018-12-17T14:21:57.272Z,14.17
2018-12-17T14:24:24.765Z,12.27
2018-12-17T14:26:52.581Z,13.87
2018-12-17T14:29:20.085Z,15.70
2018-12-17T14:31:47.530Z,13.63
2018-12-17T14:34:15.061Z,15.27
2018-12-17T14:36:42.549Z,13.63
2018-12-17T14:39:10.060Z,13.30
2018-12-17T14:41:37.654Z,14.03
2018-12-17T14:44:10.777Z,13.70
2018-12-17T14:46:44.183Z,13.93
2018-12-17T14:49:11.681Z,14.80
2018-12-17T14:51:39.374Z,13.13
2018-12-17T14:54:08.089Z,16.10
2018-12-17T14:56:35.581Z,14.40
2018-12-17T14:59:03.135Z,14.87
2018-12-17T15:01:35.805Z,14.63
2018-12-17T15:04:01.398Z,16.40
2018-12-17T15:06:28.956Z,14.70
2018-12-17T15:08:56.654Z,15.53
2018-12-17T15:11:24.295Z,16.47
2018-12-17T15:13:52.928Z,15.40
2018-12-17T15:16:20.402Z,16.03
2018-12-17T15:18:47.892Z,15.43
2018-12-17T15:21:15.428Z,15.50
2018-12-17T15:23:42.980Z,16.40
2018-12-17T15:26:10.597Z,16.10
2018-12-17T15:28:38.206Z,16.67
2018-12-17T15:31:06.177Z,17.00
2018-12-17T15:33:36.832Z,17.50
2018-12-17T15:36:04.604Z,16.57
2018-12-17T15:38:32.150Z,16.83
2018-12-17T15:40:59.609Z,17.77
2018-12-17T15:43:27.068Z,18.73
2018-12-17T15:45:54.605Z,19.93
2018-12-17T15:48:22.259Z,18.50
2018-12-17T15:50:49.818Z,18.10
2018-12-17T15:53:17.448Z,19.70
2018-12-17T15:55:45.207Z,18.90
2018-12-17T15:58:12.811Z,20.53
2018-12-17T16:00:40.546Z,20.63
2018-12-17T16:03:08.673Z,20.53
2018-12-17T16:05:36.169Z,19.83
2018-12-17T16:08:03.777Z,21.63
2018-12-17T16:10:31.572Z,21.33
2018-12-17T16:12:59.290Z,20.07
2018-12-17T16:15:26.775Z,20.90
2018-12-17T16:17:54.317Z,24.47
2018-12-17T16:20:21.784Z,22.30
2018-12-17T16:22:49.466Z,22.67
2018-12-17T16:25:17.312Z,23.30
2018-12-17T16:27:44.782Z,24.10
2018-12-17T16:30:13.602Z,23.60
2018-12-17T16:32:41.532Z,23.93
2018-12-17T16:35:09.246Z,25.83
2018-12-17T16:37:36.802Z,25.53
2018-12-17T16:40:05.958Z,23.17
2018-12-17T16:42:33.553Z,25.03
2018-12-17T16:45:01.106Z,24.00
2018-12-17T16:47:28.844Z,25.27
2018-12-17T16:49:56.333Z,28.40
2018-12-17T16:52:23.846Z,27.87
2018-12-17T16:54:51.459Z,27.70
2018-12-17T16:57:18.945Z,28.90
2018-12-17T16:59:46.530Z,27.70
2018-12-17T17:02:13.962Z,28.20
2018-12-17T17:04:41.604Z,28.67
2018-12-17T17:07:09.254Z,27.70
2018-12-17T17:09:36.741Z,29.13
2018-12-17T17:12:04.493Z,27.73
2018-12-17T17:14:32.052Z,30.57
2018-12-17T17:17:00.061Z,29.97
2018-12-17T17:19:27.648Z,31.03
2018-12-17T17:21:55.212Z,30.50
2018-12-17T17:24:22.646Z,29.17
2018-12-17T17:26:50.262Z,29.30
2018-12-17T17:29:17.885Z,30.03
2018-12-17T17:31:45.385Z,28.90
2018-12-17T17:34:12.873Z,31.10
2018-12-17T17:36:40.702Z,30.90
2018-12-17T17:39:08.562Z,31.70
2018-12-17T17:41:36.334Z,31.70
2018-12-17T17:44:04.005Z,30.93
2018-12-17T17:46:31.615Z,32.07
2018-12-17T17:48:59.260Z,31.13
2018-12-17T17:51:26.943Z,30.07
2018-12-17T17:53:54.429Z,32.10
2018-12-17T17:56:21.888Z,31.87
2018-12-17T17:58:49.419Z,29.67
2018-12-17T18:01:17.422Z,31.50
2018-12-17T18:03:44.938Z,33.40
2018-12-17T18:06:16.295Z,33.43
2018-12-17T18:08:42.543Z,32.30
2018-12-17T18:11:10.036Z,31.63
2018-12-17T18:13:37.541Z,31.47
2018-12-17T18:16:05.021Z,32.37
2018-12-17T18:18:32.546Z,30.27
2018-12-17T18:21:00.085Z,31.40
2018-12-17T18:23:27.531Z,33.77
2018-12-17T18:25:55.018Z,31.30
2018-12-17T18:28:22.489Z,32.40
2018-12-17T18:30:49.988Z,30.47
2018-12-17T18:33:17.598Z,32.40
2018-12-17T18:35:45.342Z,35.20
2018-12-17T18:38:12.983Z,31.20
2018-12-17T18:40:40.863Z,32.70
2018-12-17T18:43:08.751Z,31.70
2018-12-17T18:45:36.342Z,33.77
2018-12-17T18:48:04.066Z,32.00
2018-12-17T18:50:31.732Z,34.87
2018-12-17T18:52:59.385Z,33.13
2018-12-17T18:55:26.909Z,33.57
2018-12-17T18:57:54.495Z,32.80
2018-12-17T19:00:22.077Z,32.57
2018-12-17T19:02:49.568Z,34.37
2018-12-17T19:05:17.074Z,32.40
2018-12-17T19:07:44.570Z,33.13
2018-12-17T19:10:12.749Z,30.77
2018-12-17T19:12:40.961Z,32.50
2018-12-17T19:15:08.881Z,32.67
2018-12-17T19:17:37.127Z,33.20
2018-12-17T19:20:04.911Z,31.87
2018-12-17T19:22:32.606Z,31.60
2018-12-17T19:25:00.382Z,33.20
2018-12-17T19:27:27.931Z,31.97
2018-12-17T19:29:55.424Z,31.40
2018-12-17T19:32:23.226Z,31.40
2018-12-17T19:34:51.106Z,31.30
2018-12-17T19:37:18.606Z,33.50
2018-12-17T19:39:46.099Z,31.03
2018-12-17T19:42:13.648Z,33.37
2018-12-17T19:44:41.171Z,31.43
2018-12-17T19:47:08.940Z,29.47
2018-12-17T19:49:36.530Z,30.37
2018-12-17T19:52:04.039Z,29.93
2018-12-17T19:54:31.513Z,29.63
2018-12-17T19:56:59.161Z,29.67
2018-12-17T19:59:26.860Z,29.03
2018-12-17T20:01:54.960Z,31.20
2018-12-17T20:04:22.648Z,30.60
2018-12-17T20:06:50.209Z,28.40
2018-12-17T20:09:17.716Z,27.50
2018-12-17T20:11:45.403Z,26.97
2018-12-17T20:14:13.022Z,26.67
2018-12-17T20:16:40.962Z,27.07
2018-12-17T20:19:08.857Z,27.60
2018-12-17T20:21:37.557Z,27.90
2018-12-17T20:24:05.108Z,27.43
2018-12-17T20:26:32.841Z,24.83
2018-12-17T20:29:00.342Z,28.13
2018-12-17T20:31:27.899Z,26.30
2018-12-17T20:33:55.758Z,27.37
2018-12-17T20:36:23.405Z,25.30
2018-12-17T20:38:50.932Z,24.70
2018-12-17T20:41:18.417Z,26.00
2018-12-17T20:43:45.905Z,27.20
2018-12-17T20:46:13.671Z,27.27
2018-12-17T20:48:41.137Z,25.67
2018-12-17T20:51:08.961Z,25.03
2018-12-17T20:53:36.788Z,24.57
2018-12-17T20:56:04.397Z,25.07
2018-12-17T20:58:31.961Z,28.17
2018-12-17T21:00:59.827Z,27.03
2018-12-17T21:03:27.354Z,26.90
2018-12-17T21:05:54.878Z,26.80
2018-12-17T21:08:22.581Z,25.90
2018-12-17T21:10:50.035Z,26.13
2018-12-17T21:13:17.560Z,27.40
2018-12-17T21:15:45.093Z,25.77
2018-12-17T21:18:12.979Z,26.20
2018-12-17T21:20:40.613Z,25.73
2018-12-17T21:23:08.624Z,27.13
2018-12-17T21:25:36.123Z,26.43
2018-12-17T21:28:03.734Z,24.17
2018-12-17T21:30:31.230Z,25.70
2018-12-17T21:32:58.954Z,25.70
2018-12-17T21:35:26.472Z,26.33
2018-12-17T21:37:54.070Z,27.17
2018-12-17T21:40:22.101Z,26.33
2018-12-17T21:42:49.582Z,26.57
2018-12-17T21:45:17.131Z,25.80
2018-12-17T21:47:44.670Z,25.73
2018-12-17T21:50:12.358Z,26.43
2018-12-17T21:52:39.875Z,24.47
2018-12-17T21:55:07.877Z,25.97
2018-12-17T21:57:35.562Z,25.50
2018-12-17T22:00:04.180Z,26.97
2018-12-17T22:02:33.889Z,25.57
2018-12-17T22:05:01.633Z,27.37
2018-12-17T22:07:31.364Z,26.50
2018-12-17T22:09:59.029Z,27.13
2018-12-17T22:12:26.801Z,26.90
2018-12-17T22:15:01.501Z,28.60
2018-12-17T22:17:29.915Z,29.10
2018-12-17T22:19:57.411Z,28.57
2018-12-17T22:22:24.941Z,29.23
2018-12-17T22:24:52.849Z,27.97
2018-12-17T22:27:20.661Z,29.73
2018-12-17T22:29:48.325Z,28.03
2018-12-17T22:32:16.249Z,28.00
2018-12-17T22:34:44.039Z,26.63
2018-12-17T22:37:11.724Z,27.17
2018-12-17T22:39:39.264Z,30.20
2018-12-17T22:42:06.749Z,28.30
2018-12-17T22:44:34.532Z,29.53
2018-12-17T22:47:03.345Z,30.13
2018-12-17T22:49:32.108Z,27.93
2018-12-17T22:51:59.713Z,29.23
2018-12-17T22:54:27.227Z,27.53
2018-12-17T22:56:54.725Z,27.80
2018-12-17T22:59:22.438Z,28.97
2018-12-17T23:01:49.917Z,28.57
2018-12-17T23:04:17.521Z,28.97
2018-12-17T23:06:45.165Z,30.40
2018-12-17T23:09:11.936Z,27.13
2018-12-17T23:11:58.714Z,29.17
2018-12-17T23:14:37.677Z,28.60
2018-12-17T23:20:10.262Z,29.10
2018-12-17T23:22:42.345Z,27.23
2018-12-17T23:25:12.000Z,29.60
2018-12-17T23:27:47.817Z,30.70
2018-12-17T23:30:15.585Z,30.70
2018-12-17T23:32:43.075Z,31.03
2018-12-17T23:35:10.654Z,29.57
2018-12-17T23:37:38.187Z,29.17
2018-12-17T23:40:06.273Z,29.93
2018-12-17T23:42:33.921Z,30.73
2018-12-17T23:45:01.542Z,33.37
2018-12-17T23:47:29.078Z,29.10
2018-12-17T23:49:56.554Z,29.20
2018-12-17T23:52:24.131Z,29.80
2018-12-17T23:54:51.624Z,29.73
2018-12-17T23:57:19.109Z,30.40
2018-12-17T23:59:46.666Z,31.00
